Home   Weather   France   Annecy   Past weeks
Flag for France

Past Weather in Annecy, Haute-Savoie, France — Yesterday and Last 2 Weeks

Currently: 39 °F. Overcast. (Weather station: Chambery / Aix-Les-Bains, France). See more current weather

Past Weather in Annecy — Graph

°F

Annecy Temperature Yesterday

Maximum temperature yesterday: 45 °F (at 2:00 pm)
Minimum temperature yesterday: 36 °F (at 12:00 am)
Average temperature yesterday: 38 °F

High & Low Weather Summary for the Past Weeks

 TemperatureHumidityPressure
High55 °F (Nov 24, 3:00 pm)100% (Nov 22, 10:30 pm)30.42 "Hg (Nov 22, 10:30 pm)
Low32 °F (Nov 23, 3:00 am)59% (Nov 24, 3:00 pm)29.65 "Hg (Nov 22, 2:00 pm)
Average42 °F88%30.05 "Hg
* Reported Nov 22 2:00 pm — Dec 7 2:00 pm, Annecy. Weather by CustomWeather, © 2022

Note: Actual official high and low records may vary slightly from our data, if they occured in-between our weather recording intervals... More about our weather records

Annecy Weather History for the Previous 24 Hours

Scroll right to see more
 ConditionsComfort  
Time TempWeatherWind HumidityBarometerVisibility
2:00 pm
Wed, Dec 7
39 °FMostly cloudy.3 mph81%30.01 "HgN/A
1:30 pm39 °FMostly cloudy.3 mph81%30.01 "HgN/A
1:00 pm39 °FCloudy.3 mph81%30.04 "HgN/A
12:00 pm39 °FMostly cloudy.3 mph81%30.04 "HgN/A
11:00 am37 °FMostly cloudy.3 mph87%30.07 "HgN/A
10:30 am37 °FMostly cloudy.3 mph87%30.07 "HgN/A
10:00 am37 °FMostly cloudy.2 mph87%30.07 "HgN/A
9:30 am37 °FOvercast.No wind87%30.07 "HgN/A
9:00 am37 °FOvercast.2 mph87%30.07 "HgN/A
8:30 am37 °FOvercast.2 mph87%30.04 "HgN/A
8:00 am37 °FMostly cloudy.1 mph87%30.04 "Hg6 mi
7:30 am37 °FMostly cloudy.3 mph93%30.04 "Hg6 mi
7:00 am37 °FOvercast.3 mph87%30.04 "Hg4 mi
6:30 am37 °FOvercast.No wind87%30.04 "Hg4 mi
6:00 am37 °FOvercast.2 mph87%30.07 "Hg4 mi
5:30 am37 °FOvercast.3 mph87%30.07 "Hg4 mi
5:00 am37 °FOvercast.3 mph87%30.07 "Hg6 mi
4:30 am37 °FLow clouds.7 mph93%30.07 "HgN/A
4:00 am37 °FMostly cloudy.8 mph93%30.07 "HgN/A
3:30 am37 °FMostly cloudy.6 mph93%30.07 "Hg4 mi
3:00 am37 °FOvercast.7 mph93%30.07 "Hg4 mi
2:30 am37 °FLow clouds.8 mph93%30.07 "Hg4 mi
2:00 am37 °FLow clouds.8 mph93%30.07 "Hg4 mi
12:30 am36 °FLow clouds.8 mph100%30.09 "Hg4 mi
12:00 am36 °FLow clouds.9 mph100%30.09 "Hg4 mi
11:30 pm
Tue, Dec 6
37 °FLow clouds.7 mph93%30.07 "Hg5 mi
11:00 pm37 °FLow clouds.8 mph93%30.07 "Hg4 mi
10:30 pm37 °FLow clouds.9 mph93%30.07 "Hg4 mi
10:00 pm37 °FLow clouds.9 mph93%30.07 "Hg4 mi
9:30 pm37 °FLow clouds.9 mph93%30.07 "Hg4 mi
9:00 pm37 °FLow clouds.10 mph100%30.07 "Hg4 mi
8:30 pm39 °FLow clouds.10 mph93%30.07 "Hg4 mi
8:00 pm39 °FLow clouds.12 mph93%30.04 "Hg4 mi
7:30 pm39 °FLow clouds.12 mph93%30.04 "Hg4 mi
7:00 pm39 °FPassing clouds.7 mph93%30.04 "Hg4 mi
6:30 pm36 °FPassing clouds.3 mph87%30.04 "HgN/A
6:00 pm36 °FPassing clouds.1 mph87%30.04 "HgN/A
5:30 pm36 °FClear.2 mph93%30.04 "Hg10 mi
5:00 pm37 °FClear.3 mph87%30.01 "Hg10 mi
4:30 pm39 °FSunny.1 mph81%30.01 "Hg10 mi
4:00 pm43 °FSunny.3 mph71%30.04 "Hg10 mi
3:30 pm45 °FSunny.3 mph71%30.01 "Hg10 mi
3:00 pm45 °FSunny.3 mph71%30.04 "Hg10 mi
Weather by CustomWeather, © 2022

See weather overview